createdAt,value
2022-10-04T00:02:48.341Z,77.02
2022-10-04T00:07:56.921Z,77.55
2022-10-04T00:13:03.799Z,77.70
2022-10-04T00:18:20.907Z,78.07
2022-10-04T00:23:30.221Z,77.83
2022-10-04T00:28:46.055Z,77.83
2022-10-04T00:33:51.644Z,77.86
2022-10-04T00:39:15.412Z,77.88
2022-10-04T00:44:25.395Z,77.75
2022-10-04T00:49:33.936Z,77.76
2022-10-04T00:54:42.343Z,77.75
2022-10-04T00:59:50.135Z,77.88
2022-10-04T01:04:57.935Z,77.63
2022-10-04T01:10:06.880Z,77.70
2022-10-04T01:15:17.403Z,77.59
2022-10-04T01:20:33.475Z,77.47
2022-10-04T01:25:47.327Z,77.29
2022-10-04T01:30:50.365Z,77.56
2022-10-04T01:35:53.343Z,77.53
2022-10-04T01:41:00.569Z,77.39
2022-10-04T01:46:10.158Z,77.61
2022-10-04T01:51:19.324Z,77.18
2022-10-04T01:56:27.916Z,77.28
2022-10-04T02:01:35.880Z,77.13
2022-10-04T02:06:42.082Z,77.21
2022-10-04T02:11:50.965Z,76.83
2022-10-04T02:16:54.845Z,77.02
2022-10-04T02:21:58.492Z,77.30
2022-10-04T02:27:02.669Z,77.06
2022-10-04T02:32:24.775Z,77.32
2022-10-04T02:37:30.039Z,77.28
2022-10-04T02:42:41.630Z,76.81
2022-10-04T02:47:47.953Z,77.06
2022-10-04T02:52:56.212Z,77.15
2022-10-04T02:58:01.547Z,77.11
2022-10-04T03:03:17.054Z,76.99
2022-10-04T03:08:19.984Z,76.94
2022-10-04T03:13:24.439Z,77.40
2022-10-04T03:18:27.451Z,77.53
2022-10-04T03:23:33.017Z,77.37
2022-10-04T03:28:38.799Z,77.24
2022-10-04T03:33:43.884Z,77.31
2022-10-04T03:38:49.523Z,77.21
2022-10-04T03:43:56.365Z,77.17
2022-10-04T03:49:00.490Z,77.37
2022-10-04T03:54:06.928Z,77.13
2022-10-04T03:59:17.876Z,77.21
2022-10-04T04:04:26.021Z,77.24
2022-10-04T04:09:40.359Z,77.12
2022-10-04T04:14:47.853Z,77.23
2022-10-04T04:19:50.767Z,77.25
2022-10-04T04:24:53.661Z,77.49
2022-10-04T04:30:01.735Z,77.50
2022-10-04T04:35:08.431Z,77.69
2022-10-04T04:40:21.459Z,77.57
2022-10-04T04:45:29.920Z,77.41
2022-10-04T04:50:35.728Z,77.37
2022-10-04T04:56:02.393Z,77.37
2022-10-04T05:01:18.888Z,77.45
2022-10-04T05:06:26.785Z,77.85
2022-10-04T05:11:32.867Z,78.01
2022-10-04T05:16:43.015Z,77.94
2022-10-04T05:21:48.122Z,77.96
2022-10-04T05:26:54.219Z,78.10
2022-10-04T05:32:09.585Z,78.53
2022-10-04T05:37:35.367Z,78.58
2022-10-04T05:42:41.488Z,78.83
2022-10-04T05:47:47.836Z,78.66
2022-10-04T05:52:52.545Z,78.75
2022-10-04T05:58:25.281Z,78.73
2022-10-04T06:03:40.651Z,78.58
2022-10-04T06:08:52.825Z,78.36
2022-10-04T06:14:13.144Z,78.56
2022-10-04T06:19:34.276Z,78.58
2022-10-04T06:24:41.124Z,76.94
2022-10-04T06:29:49.122Z,75.55
2022-10-04T06:35:16.617Z,74.45
2022-10-04T06:40:45.513Z,74.12
2022-10-04T06:46:03.135Z,73.72
2022-10-04T06:51:16.112Z,74.29
2022-10-04T06:56:46.054Z,73.28
2022-10-04T07:01:51.724Z,73.19
2022-10-04T07:07:34.860Z,73.10
2022-10-04T07:12:40.335Z,73.10
2022-10-04T07:17:46.818Z,73.69
2022-10-04T07:22:57.301Z,71.36
2022-10-04T07:28:23.279Z,68.87
2022-10-04T07:33:31.013Z,67.85
2022-10-04T07:38:40.312Z,68.29
2022-10-04T07:43:51.350Z,68.53
2022-10-04T07:48:54.355Z,70.02
2022-10-04T07:54:04.188Z,70.25
2022-10-04T07:59:36.742Z,71.02
2022-10-04T08:04:47.885Z,71.19
2022-10-04T08:10:02.611Z,68.65
2022-10-04T08:15:28.401Z,66.34
2022-10-04T08:20:40.357Z,65.19
2022-10-04T08:25:55.973Z,63.95
2022-10-04T08:31:09.266Z,62.68
2022-10-04T08:36:26.489Z,62.13
2022-10-04T08:42:04.744Z,61.92
2022-10-04T08:47:40.208Z,60.39
2022-10-04T08:53:05.372Z,59.55
2022-10-04T08:58:17.731Z,56.23
2022-10-04T09:03:53.578Z,55.40
2022-10-04T09:09:34.188Z,56.93
2022-10-04T09:15:11.971Z,54.94
2022-10-04T09:20:39.690Z,54.24
2022-10-04T09:25:56.486Z,54.34
2022-10-04T09:31:23.509Z,54.11
2022-10-04T09:36:52.372Z,52.46
2022-10-04T09:42:31.000Z,50.78
2022-10-04T09:47:45.759Z,49.88
2022-10-04T09:52:58.992Z,50.60
2022-10-04T09:58:37.872Z,50.82
2022-10-04T10:04:05.448Z,49.93
2022-10-04T10:09:20.881Z,49.35
2022-10-04T10:15:09.691Z,49.26
2022-10-04T10:20:48.264Z,46.48
2022-10-04T10:26:11.960Z,47.03
2022-10-04T10:31:32.595Z,46.57
2022-10-04T10:36:47.515Z,48.25
2022-10-04T10:42:09.373Z,44.82
2022-10-04T10:47:29.597Z,42.86
2022-10-04T10:53:05.287Z,44.59
2022-10-04T10:58:45.561Z,42.43
2022-10-04T11:04:27.314Z,41.64
2022-10-04T11:09:35.172Z,41.69
2022-10-04T11:15:16.258Z,40.92
2022-10-04T11:20:50.111Z,40.49
2022-10-04T11:26:29.254Z,41.27
2022-10-04T11:32:10.097Z,40.71
2022-10-04T11:37:23.530Z,39.72
2022-10-04T11:42:31.876Z,38.80
2022-10-04T11:47:47.474Z,38.84
2022-10-04T11:53:29.374Z,41.59
2022-10-04T11:58:45.440Z,41.27
2022-10-04T12:04:22.477Z,40.13
2022-10-04T12:09:36.825Z,41.72
2022-10-04T12:14:57.505Z,41.33
2022-10-04T12:20:32.984Z,42.22
2022-10-04T12:26:00.389Z,40.97
2022-10-04T12:31:23.138Z,40.71
2022-10-04T12:36:44.209Z,40.03
2022-10-04T12:41:57.463Z,37.95
2022-10-04T12:47:28.543Z,36.21
2022-10-04T12:52:42.571Z,37.29
2022-10-04T12:57:52.817Z,38.04
2022-10-04T13:03:25.085Z,35.35
2022-10-04T13:08:41.465Z,34.55
2022-10-04T13:14:17.384Z,33.74
2022-10-04T13:19:25.921Z,34.49
2022-10-04T13:24:55.179Z,34.49
2022-10-04T13:30:06.886Z,33.88
2022-10-04T13:35:20.715Z,35.02
2022-10-04T13:40:42.136Z,32.80
2022-10-04T13:46:08.412Z,33.46
2022-10-04T13:51:35.756Z,33.32
2022-10-04T13:57:06.295Z,33.47
2022-10-04T14:02:38.688Z,32.02
2022-10-04T14:08:09.957Z,32.00
2022-10-04T14:13:38.305Z,34.84
2022-10-04T14:19:18.548Z,36.00
2022-10-04T14:25:06.118Z,35.04
2022-10-04T14:30:18.748Z,34.56
2022-10-04T14:35:27.676Z,34.46
2022-10-04T14:40:50.664Z,34.92
2022-10-04T14:46:15.152Z,34.17
2022-10-04T14:51:36.992Z,37.18
2022-10-04T14:56:52.243Z,40.38
2022-10-04T15:02:34.831Z,39.97
2022-10-04T15:07:42.129Z,38.92
2022-10-04T15:13:11.212Z,40.45
2022-10-04T15:18:31.114Z,41.55
2022-10-04T15:23:40.212Z,41.67
2022-10-04T15:29:00.009Z,42.35
2022-10-04T15:34:14.605Z,41.72
2022-10-04T15:39:53.433Z,41.68
2022-10-04T15:45:20.852Z,41.07
2022-10-04T15:50:30.698Z,42.65
2022-10-04T15:55:58.113Z,44.44
2022-10-04T16:06:26.591Z,44.37
2022-10-04T16:11:40.770Z,44.41
2022-10-04T16:17:13.865Z,44.81
2022-10-04T16:22:19.887Z,45.56
2022-10-04T16:27:43.952Z,46.82
2022-10-04T16:33:05.130Z,47.27
2022-10-04T16:38:22.409Z,47.86
2022-10-04T16:43:29.699Z,50.64
2022-10-04T16:48:40.040Z,49.99
2022-10-04T16:53:50.455Z,49.83
2022-10-04T16:59:00.322Z,50.11
2022-10-04T17:04:16.773Z,50.94
2022-10-04T17:09:28.631Z,51.38
2022-10-04T17:15:01.732Z,51.78
2022-10-04T17:20:13.585Z,51.89
2022-10-04T17:25:31.101Z,52.09
2022-10-04T17:30:48.622Z,52.45
2022-10-04T17:36:14.473Z,52.82
2022-10-04T17:41:25.007Z,53.65
2022-10-04T17:46:40.926Z,54.02
2022-10-04T17:52:05.173Z,53.99
2022-10-04T17:57:22.869Z,54.56
2022-10-04T18:02:35.389Z,54.93
2022-10-04T18:07:44.849Z,55.42
2022-10-04T18:12:51.684Z,55.63
2022-10-04T18:18:16.300Z,55.75
2022-10-04T18:23:25.336Z,55.86
2022-10-04T18:28:28.619Z,55.49
2022-10-04T18:33:49.156Z,55.45
2022-10-04T18:39:21.778Z,55.25
2022-10-04T18:44:29.398Z,55.13
2022-10-04T18:49:48.681Z,55.42
2022-10-04T18:55:02.564Z,55.66
2022-10-04T19:00:28.292Z,55.67
2022-10-04T19:05:51.277Z,56.00
2022-10-04T19:11:03.365Z,56.31
2022-10-04T19:16:17.271Z,56.79
2022-10-04T19:21:29.350Z,56.95
2022-10-04T19:26:35.408Z,57.15
2022-10-04T19:31:45.349Z,56.50
2022-10-04T19:36:55.189Z,56.77
2022-10-04T19:42:01.106Z,55.91
2022-10-04T19:47:10.320Z,55.70
2022-10-04T19:52:21.957Z,55.99
2022-10-04T19:57:35.208Z,56.54
2022-10-04T20:02:37.991Z,56.99
2022-10-04T20:07:48.741Z,57.21
2022-10-04T20:13:17.226Z,57.45
2022-10-04T20:25:10.174Z,57.65
2022-10-04T20:30:14.671Z,57.88
2022-10-04T20:36:08.903Z,58.51
2022-10-04T20:42:02.464Z,58.84
2022-10-04T20:47:19.817Z,59.30
2022-10-04T20:52:26.354Z,59.46
2022-10-04T20:57:31.120Z,59.49
2022-10-04T21:02:35.345Z,59.56
2022-10-04T21:07:38.285Z,60.10
2022-10-04T21:12:41.637Z,60.64
2022-10-04T21:18:01.036Z,61.34
2022-10-04T21:23:09.133Z,61.73
2022-10-04T21:28:30.560Z,61.50
2022-10-04T21:33:36.302Z,61.68
2022-10-04T21:38:39.099Z,62.24
2022-10-04T21:43:41.897Z,62.28
2022-10-04T21:48:46.089Z,62.50
2022-10-04T21:53:48.846Z,62.68
2022-10-04T21:58:51.774Z,62.87
2022-10-04T22:03:56.118Z,63.12
2022-10-04T22:08:59.006Z,63.30
2022-10-04T22:14:01.815Z,63.40
2022-10-04T22:19:06.106Z,63.36
2022-10-04T22:24:16.018Z,63.69
2022-10-04T22:29:19.933Z,64.13
2022-10-04T22:34:24.052Z,64.12
2022-10-04T22:39:27.815Z,64.50
2022-10-04T22:44:34.890Z,64.93
2022-10-04T22:49:42.729Z,65.17
2022-10-04T22:54:47.084Z,66.05
2022-10-04T22:59:51.757Z,65.49
2022-10-04T23:04:59.296Z,65.97
2022-10-04T23:10:02.218Z,66.43
2022-10-04T23:15:06.877Z,66.56
2022-10-04T23:20:15.841Z,66.96
2022-10-04T23:25:20.825Z,66.91
2022-10-04T23:30:23.698Z,67.96
2022-10-04T23:35:32.081Z,67.62
2022-10-04T23:40:35.055Z,67.89
2022-10-04T23:45:41.915Z,67.32
2022-10-04T23:50:46.282Z,67.70
2022-10-04T23:55:49.114Z,67.76
